Anacortes, WA

3:49 PM PST on January 22, 2017 (GMT -0800)
Cap Sante Marina | | Change Station
Active Advisory: Small Craft Advisory

Elev 7 ft 48.51 °N, 122.61 °W | Updated 3 minutes ago

Overcast
Overcast
46.3 °F
Feels Like 40 °F
N
15.0
Wind Variable Wind from ESE
Gusts 17.0 mph

Today
High -- | Low -- °F
--% Chance of Precip.
Yesterday
High -- | Low -- °F
Precip. -- in
Pressure 29.56 in
Visibility 10.0 miles
Clouds Few 2000 ft
Scattered Clouds 5000 ft
Mostly Cloudy 10000 ft
Mostly Cloudy 15000 ft
Windchill 40 °F
Dew Point 40 °F
Humidity 79%
Rainfall 0.00 in
Snow Depth Not available.
7:50 AM 4:53 PM
Waning Crescent, 23% visible
METAR KNUW 222256Z 13014G22KT 10SM FEW020 SCT050 BKN100 BKN150 08/03 A2956 RMK AO2 PK WND 13026/2236 SLP010 T00830033 $
Pressure 29.56 in
Visibility 10.0 miles
Clouds Few 2000 ft
Scattered Clouds 5000 ft
Mostly Cloudy 10000 ft
Mostly Cloudy 15000 ft
Windchill 40 °F
Dew Point 40 °F
Humidity 79%
Rainfall 0.00 in
Snow Depth Not available.
7:50 AM 4:53 PM
Waning Crescent, 23% visible
METAR KNUW 222256Z 13014G22KT 10SM FEW020 SCT050 BKN100 BKN150 08/03 A2956 RMK AO2 PK WND 13026/2236 SLP010 T00830033 $

Get Your Daily Forecast Email!

Thanks for signing up!

Be on the lookout for a verification email in your inbox.

You'll start receiving the daily forecast at 8 AM.

×

10-Day Weather Forecast

Almanac

Astronomy

Jan. 22, 2017 Rise Set
Actual Time
Civil Twilight
Nautical Twilight
Astronomical Twilight
Moon
Length of Visible Light
Length of Day
Tomorrow will be .
, % of the Moon is Illuminated

Today's Extremes

State Highs State Lows

Community

WunderPhotos

Upload Photos

1,962,540 photos uploaded!

WunderBlog® & News

Nearby

Air Quality

  Air Quality AQ Index Pollutant
Not available.

Snow Depth

Station Depth Elevation

Earthquake Activity

City Distance Mag. Time & Date
Minimum magnitude displayed is 2.5.

Coastal Water Temperatures

Place Temperature

Stations

Nearby Weather Stations

Station Location Temp. Windchill Dew Point Humidity Wind Precip. Elev Updated Type
                   

Watches & Warnings

Small Craft Advisory
Issued: 2:48 PM PST Jan. 22, 2017 – National Weather Service

... Small Craft Advisory remains in effect until 6 PM PST this
evening...

* winds... southeast 15 to 25 knots easing to 10 to 20 knots.

Precautionary/preparedness actions...

A Small Craft Advisory means that wind speeds of 21 to 33 knots are
expected to produce hazardous wave conditions to small craft.
Inexperienced mariners... especially those operating smaller vessels
should avoid navigating in these conditions.